sensor_id;sensor_type;location;lat;lon;timestamp;pressure;altitude;pressure_sealevel;temperature;humidity
75604;BME280;64187;51.010;13.792;2023-05-15T00:00:05;99868.28;;;12.09;78.55
75604;BME280;64187;51.010;13.792;2023-05-15T00:05:16;99863.47;;;11.79;79.93
75604;BME280;64187;51.010;13.792;2023-05-15T00:10:15;99863.00;;;11.50;81.40
75604;BME280;64187;51.010;13.792;2023-05-15T00:15:14;99855.75;;;11.55;81.67
75604;BME280;64187;51.010;13.792;2023-05-15T00:20:13;99857.16;;;11.63;80.57
75604;BME280;64187;51.010;13.792;2023-05-15T00:25:12;99849.25;;;11.61;81.05
75604;BME280;64187;51.010;13.792;2023-05-15T00:30:12;99846.13;;;11.42;81.88
75604;BME280;64187;51.010;13.792;2023-05-15T00:35:11;99832.97;;;11.56;81.28
75604;BME280;64187;51.010;13.792;2023-05-15T00:40:12;99829.16;;;11.20;82.97
75604;BME280;64187;51.010;13.792;2023-05-15T00:45:13;99813.59;;;11.05;83.30
75604;BME280;64187;51.010;13.792;2023-05-15T00:50:13;99819.25;;;10.98;83.82
75604;BME280;64187;51.010;13.792;2023-05-15T00:55:12;99816.13;;;11.17;82.93
75604;BME280;64187;51.010;13.792;2023-05-15T01:00:14;99812.88;;;11.15;83.08
75604;BME280;64187;51.010;13.792;2023-05-15T01:05:15;99810.47;;;11.18;82.65
75604;BME280;64187;51.010;13.792;2023-05-15T01:10:15;99806.19;;;11.28;82.23
75604;BME280;64187;51.010;13.792;2023-05-15T01:15:15;99810.78;;;11.27;82.14
75604;BME280;64187;51.010;13.792;2023-05-15T01:20:17;99806.22;;;11.33;81.74
75604;BME280;64187;51.010;13.792;2023-05-15T01:30:35;99802.56;;;11.49;80.66
75604;BME280;64187;51.010;13.792;2023-05-15T01:41:01;99797.16;;;12.02;77.89
75604;BME280;64187;51.010;13.792;2023-05-15T01:46:04;99799.19;;;11.79;78.69
75604;BME280;64187;51.010;13.792;2023-05-15T01:51:05;99790.03;;;11.85;78.25
75604;BME280;64187;51.010;13.792;2023-05-15T01:56:07;99801.38;;;11.35;80.07
75604;BME280;64187;51.010;13.792;2023-05-15T02:01:08;99792.03;;;11.53;79.55
75604;BME280;64187;51.010;13.792;2023-05-15T02:06:08;99782.38;;;11.77;79.74
75604;BME280;64187;51.010;13.792;2023-05-15T02:11:07;99774.16;;;12.15;78.18
75604;BME280;64187;51.010;13.792;2023-05-15T02:16:08;99774.97;;;12.05;77.72
75604;BME280;64187;51.010;13.792;2023-05-15T02:21:07;99770.00;;;11.92;79.34
75604;BME280;64187;51.010;13.792;2023-05-15T02:31:50;99757.97;;;11.77;80.51
75604;BME280;64187;51.010;13.792;2023-05-15T02:36:51;99752.94;;;11.96;79.46
75604;BME280;64187;51.010;13.792;2023-05-15T02:41:51;99752.94;;;11.96;79.55
75604;BME280;64187;51.010;13.792;2023-05-15T02:46:52;99751.38;;;12.11;79.08
75604;BME280;64187;51.010;13.792;2023-05-15T02:51:51;99742.75;;;11.66;81.92
75604;BME280;64187;51.010;13.792;2023-05-15T02:56:50;99734.78;;;12.07;80.54
75604;BME280;64187;51.010;13.792;2023-05-15T03:01:49;99730.69;;;11.94;80.97
75604;BME280;64187;51.010;13.792;2023-05-15T03:06:48;99736.56;;;11.76;81.55
75604;BME280;64187;51.010;13.792;2023-05-15T03:11:47;99725.56;;;11.98;80.03
75604;BME280;64187;51.010;13.792;2023-05-15T03:16:56;99726.94;;;12.00;79.88
75604;BME280;64187;51.010;13.792;2023-05-15T03:21:55;99734.78;;;12.02;80.73
75604;BME280;64187;51.010;13.792;2023-05-15T03:26:54;99740.91;;;11.82;81.45
75604;BME280;64187;51.010;13.792;2023-05-15T03:31:52;99742.03;;;11.86;81.43
75604;BME280;64187;51.010;13.792;2023-05-15T03:36:52;99729.66;;;12.11;80.47
75604;BME280;64187;51.010;13.792;2023-05-15T03:41:51;99723.16;;;12.12;80.88
75604;BME280;64187;51.010;13.792;2023-05-15T03:46:53;99724.31;;;12.46;78.70
75604;BME280;64187;51.010;13.792;2023-05-15T03:51:52;99716.47;;;12.55;78.22
75604;BME280;64187;51.010;13.792;2023-05-15T03:56:54;99715.34;;;12.41;78.89
75604;BME280;64187;51.010;13.792;2023-05-15T04:01:54;99707.75;;;12.48;78.27
75604;BME280;64187;51.010;13.792;2023-05-15T04:07:01;99712.06;;;12.28;79.65
75604;BME280;64187;51.010;13.792;2023-05-15T04:11:59;99710.72;;;12.36;80.19
75604;BME280;64187;51.010;13.792;2023-05-15T04:16:58;99702.88;;;12.60;79.13
75604;BME280;64187;51.010;13.792;2023-05-15T04:21:57;99699.91;;;12.77;77.70
75604;BME280;64187;51.010;13.792;2023-05-15T04:26:56;99690.63;;;13.99;82.79
75604;BME280;64187;51.010;13.792;2023-05-15T04:31:55;99680.75;;;15.41;70.82
75604;BME280;64187;51.010;13.792;2023-05-15T04:36:54;99679.91;;;15.45;69.17
75604;BME280;64187;51.010;13.792;2023-05-15T04:41:53;99687.78;;;15.47;68.67
75604;BME280;64187;51.010;13.792;2023-05-15T04:46:52;99676.03;;;15.22;69.76
75604;BME280;64187;51.010;13.792;2023-05-15T04:51:51;99683.88;;;15.29;69.41
75604;BME280;64187;51.010;13.792;2023-05-15T04:56:49;99668.88;;;15.99;66.64
75604;BME280;64187;51.010;13.792;2023-05-15T05:01:49;99665.56;;;16.21;65.54
75604;BME280;64187;51.010;13.792;2023-05-15T05:06:48;99665.09;;;15.94;65.65
75604;BME280;64187;51.010;13.792;2023-05-15T05:11:47;99665.19;;;14.59;70.45
75604;BME280;64187;51.010;13.792;2023-05-15T05:16:46;99666.88;;;14.10;74.20
75604;BME280;64187;51.010;13.792;2023-05-15T05:21:46;99661.31;;;13.81;75.26
75604;BME280;64187;51.010;13.792;2023-05-15T05:26:45;99662.34;;;13.90;74.74
75604;BME280;64187;51.010;13.792;2023-05-15T05:31:48;99654.44;;;13.19;79.33
75604;BME280;64187;51.010;13.792;2023-05-15T05:36:47;99646.03;;;13.25;79.66
75604;BME280;64187;51.010;13.792;2023-05-15T05:41:46;99632.81;;;13.68;76.55
75604;BME280;64187;51.010;13.792;2023-05-15T05:46:45;99637.97;;;13.75;76.97
75604;BME280;64187;51.010;13.792;2023-05-15T05:51:44;99629.34;;;13.57;76.32
75604;BME280;64187;51.010;13.792;2023-05-15T05:56:44;99630.00;;;13.84;78.94
75604;BME280;64187;51.010;13.792;2023-05-15T06:01:43;99622.75;;;13.69;79.00
75604;BME280;64187;51.010;13.792;2023-05-15T06:06:42;99616.28;;;13.60;80.20
75604;BME280;64187;51.010;13.792;2023-05-15T06:11:42;99612.56;;;13.40;80.04
75604;BME280;64187;51.010;13.792;2023-05-15T06:16:41;99614.25;;;13.81;78.87
75604;BME280;64187;51.010;13.792;2023-05-15T06:21:41;99606.19;;;14.10;76.82
75604;BME280;64187;51.010;13.792;2023-05-15T06:26:40;99599.53;;;13.87;77.58
75604;BME280;64187;51.010;13.792;2023-05-15T06:31:39;99593.59;;;14.19;74.78
75604;BME280;64187;51.010;13.792;2023-05-15T06:36:38;99589.50;;;14.21;75.80
75604;BME280;64187;51.010;13.792;2023-05-15T06:41:37;99593.13;;;14.46;75.98
75604;BME280;64187;51.010;13.792;2023-05-15T06:46:39;99588.03;;;14.69;73.76
75604;BME280;64187;51.010;13.792;2023-05-15T06:51:38;99593.97;;;14.71;74.00
75604;BME280;64187;51.010;13.792;2023-05-15T06:56:37;99575.75;;;14.95;72.31
75604;BME280;64187;51.010;13.792;2023-05-15T07:01:36;99583.81;;;15.05;71.97
75604;BME280;64187;51.010;13.792;2023-05-15T07:06:36;99580.09;;;15.20;72.38
75604;BME280;64187;51.010;13.792;2023-05-15T07:11:35;99571.19;;;15.58;69.94
75604;BME280;64187;51.010;13.792;2023-05-15T07:16:36;99570.19;;;15.73;69.67
75604;BME280;64187;51.010;13.792;2023-05-15T07:21:35;99574.28;;;15.89;65.46
75604;BME280;64187;51.010;13.792;2023-05-15T07:26:34;99564.97;;;15.52;67.25
75604;BME280;64187;51.010;13.792;2023-05-15T07:31:54;99562.84;;;15.87;64.78
75604;BME280;64187;51.010;13.792;2023-05-15T07:36:53;99559.16;;;15.97;62.97
75604;BME280;64187;51.010;13.792;2023-05-15T07:41:57;99557.91;;;15.89;63.44
75604;BME280;64187;51.010;13.792;2023-05-15T07:46:57;99552.81;;;15.63;64.95
75604;BME280;64187;51.010;13.792;2023-05-15T07:51:58;99563.53;;;15.98;63.51
75604;BME280;64187;51.010;13.792;2023-05-15T07:56:57;99551.47;;;16.18;63.63
75604;BME280;64187;51.010;13.792;2023-05-15T08:01:56;99553.72;;;16.29;62.00
75604;BME280;64187;51.010;13.792;2023-05-15T08:06:55;99555.13;;;16.27;61.95
75604;BME280;64187;51.010;13.792;2023-05-15T08:11:54;99546.97;;;16.41;60.14
75604;BME280;64187;51.010;13.792;2023-05-15T08:16:53;99537.22;;;16.21;61.70
75604;BME280;64187;51.010;13.792;2023-05-15T08:21:52;99539.59;;;16.41;62.10
75604;BME280;64187;51.010;13.792;2023-05-15T08:26:51;99537.59;;;16.61;60.58
75604;BME280;64187;51.010;13.792;2023-05-15T08:31:50;99545.19;;;16.64;60.75
75604;BME280;64187;51.010;13.792;2023-05-15T08:36:50;99538.03;;;16.82;60.25
75604;BME280;64187;51.010;13.792;2023-05-15T08:41:56;99537.84;;;16.78;60.90
75604;BME280;64187;51.010;13.792;2023-05-15T08:46:56;99534.16;;;16.69;60.56
75604;BME280;64187;51.010;13.792;2023-05-15T08:51:55;99542.66;;;16.53;61.38
75604;BME280;64187;51.010;13.792;2023-05-15T08:56:55;99542.59;;;16.72;62.06
75604;BME280;64187;51.010;13.792;2023-05-15T09:01:54;99533.41;;;16.96;61.74
75604;BME280;64187;51.010;13.792;2023-05-15T09:06:54;99533.81;;;17.03;60.84
75604;BME280;64187;51.010;13.792;2023-05-15T09:11:54;99525.19;;;16.96;61.48
75604;BME280;64187;51.010;13.792;2023-05-15T09:16:53;99521.44;;;17.19;61.37
75604;BME280;64187;51.010;13.792;2023-05-15T09:21:52;99513.06;;;17.52;59.43
75604;BME280;64187;51.010;13.792;2023-05-15T09:27:05;99517.53;;;17.48;60.45
75604;BME280;64187;51.010;13.792;2023-05-15T09:32:09;99518.53;;;17.52;60.08
75604;BME280;64187;51.010;13.792;2023-05-15T09:37:11;99516.75;;;17.84;59.32
75604;BME280;64187;51.010;13.792;2023-05-15T09:42:13;99517.28;;;18.17;55.86
75604;BME280;64187;51.010;13.792;2023-05-15T09:47:13;99513.44;;;18.49;54.49
75604;BME280;64187;51.010;13.792;2023-05-15T09:52:14;99512.06;;;17.84;55.95
75604;BME280;64187;51.010;13.792;2023-05-15T09:57:13;99502.81;;;17.58;55.97
75604;BME280;64187;51.010;13.792;2023-05-15T10:02:26;99507.94;;;17.96;56.13
75604;BME280;64187;51.010;13.792;2023-05-15T10:07:34;99505.78;;;18.38;54.96
75604;BME280;64187;51.010;13.792;2023-05-15T10:12:34;99504.06;;;18.42;52.88
75604;BME280;64187;51.010;13.792;2023-05-15T10:17:34;99507.94;;;18.18;54.82
75604;BME280;64187;51.010;13.792;2023-05-15T10:22:39;99504.81;;;18.34;52.93
75604;BME280;64187;51.010;13.792;2023-05-15T10:27:40;99503.91;;;18.16;53.56
75604;BME280;64187;51.010;13.792;2023-05-15T10:32:41;99491.91;;;18.65;51.66
75604;BME280;64187;51.010;13.792;2023-05-15T10:37:41;99489.50;;;18.64;51.70
75604;BME280;64187;51.010;13.792;2023-05-15T10:42:44;99484.81;;;18.64;51.67
75604;BME280;64187;51.010;13.792;2023-05-15T10:47:44;99484.78;;;19.04;49.59
75604;BME280;64187;51.010;13.792;2023-05-15T10:52:43;99472.72;;;19.23;49.33
75604;BME280;64187;51.010;13.792;2023-05-15T10:57:46;99464.34;;;19.89;46.60
75604;BME280;64187;51.010;13.792;2023-05-15T11:02:45;99464.81;;;19.99;47.77
75604;BME280;64187;51.010;13.792;2023-05-15T11:13:23;99451.75;;;19.79;45.27
75604;BME280;64187;51.010;13.792;2023-05-15T11:18:22;99444.00;;;19.64;44.86
75604;BME280;64187;51.010;13.792;2023-05-15T11:23:24;99431.41;;;19.36;46.41
75604;BME280;64187;51.010;13.792;2023-05-15T11:28:24;99420.72;;;19.87;45.01
75604;BME280;64187;51.010;13.792;2023-05-15T11:33:28;99413.72;;;20.16;44.00
75604;BME280;64187;51.010;13.792;2023-05-15T11:38:36;99417.34;;;20.37;44.44
75604;BME280;64187;51.010;13.792;2023-05-15T11:43:35;99406.84;;;20.69;42.53
75604;BME280;64187;51.010;13.792;2023-05-15T11:48:44;99417.06;;;19.48;45.40
75604;BME280;64187;51.010;13.792;2023-05-15T11:53:46;99421.44;;;18.66;48.16
75604;BME280;64187;51.010;13.792;2023-05-15T11:58:49;99423.25;;;17.99;50.91
75604;BME280;64187;51.010;13.792;2023-05-15T12:03:49;99432.19;;;17.46;53.90
75604;BME280;64187;51.010;13.792;2023-05-15T12:08:54;99445.91;;;17.10;56.17
75604;BME280;64187;51.010;13.792;2023-05-15T12:13:54;99442.47;;;16.63;62.12
75604;BME280;64187;51.010;13.792;2023-05-15T12:18:55;99445.31;;;16.30;62.83
75604;BME280;64187;51.010;13.792;2023-05-15T12:23:55;99458.81;;;16.07;64.59
75604;BME280;64187;51.010;13.792;2023-05-15T12:29:05;99448.06;;;15.97;72.59
75604;BME280;64187;51.010;13.792;2023-05-15T12:34:06;99429.47;;;15.99;72.63
75604;BME280;64187;51.010;13.792;2023-05-15T12:39:06;99432.16;;;16.46;75.83
75604;BME280;64187;51.010;13.792;2023-05-15T12:44:05;99426.19;;;16.85;77.00
75604;BME280;64187;51.010;13.792;2023-05-15T12:49:04;99421.41;;;17.05;74.29
75604;BME280;64187;51.010;13.792;2023-05-15T12:54:03;99417.19;;;17.21;70.85
75604;BME280;64187;51.010;13.792;2023-05-15T12:59:02;99408.56;;;17.95;68.28
75604;BME280;64187;51.010;13.792;2023-05-15T13:04:02;99408.78;;;18.79;64.58
75604;BME280;64187;51.010;13.792;2023-05-15T13:09:01;99407.03;;;19.70;63.44
75604;BME280;64187;51.010;13.792;2023-05-15T13:14:00;99392.38;;;20.51;57.07
75604;BME280;64187;51.010;13.792;2023-05-15T13:19:05;99391.31;;;20.73;53.51
75604;BME280;64187;51.010;13.792;2023-05-15T13:24:07;99377.75;;;20.68;50.53
75604;BME280;64187;51.010;13.792;2023-05-15T13:29:10;99381.63;;;20.37;52.28
75604;BME280;64187;51.010;13.792;2023-05-15T13:34:09;99387.63;;;19.84;55.41
75604;BME280;64187;51.010;13.792;2023-05-15T13:39:08;99394.31;;;19.13;56.19
75604;BME280;64187;51.010;13.792;2023-05-15T13:44:07;99380.34;;;18.75;59.50
75604;BME280;64187;51.010;13.792;2023-05-15T13:49:06;99377.50;;;19.06;55.71
75604;BME280;64187;51.010;13.792;2023-05-15T13:54:05;99369.44;;;19.27;56.02
75604;BME280;64187;51.010;13.792;2023-05-15T13:59:04;99369.25;;;19.32;51.57
75604;BME280;64187;51.010;13.792;2023-05-15T14:04:03;99363.88;;;19.88;52.48
75604;BME280;64187;51.010;13.792;2023-05-15T14:09:02;99351.44;;;20.58;47.47
75604;BME280;64187;51.010;13.792;2023-05-15T14:14:01;99350.88;;;20.06;49.11
75604;BME280;64187;51.010;13.792;2023-05-15T14:18:59;99361.31;;;19.74;53.53
75604;BME280;64187;51.010;13.792;2023-05-15T14:23:58;99360.50;;;20.20;49.71
75604;BME280;64187;51.010;13.792;2023-05-15T14:28:57;99358.97;;;20.02;48.00
75604;BME280;64187;51.010;13.792;2023-05-15T14:33:56;99355.50;;;19.75;49.55
75604;BME280;64187;51.010;13.792;2023-05-15T14:38:55;99360.22;;;19.40;52.27
75604;BME280;64187;51.010;13.792;2023-05-15T14:43:57;99348.50;;;19.87;52.78
75604;BME280;64187;51.010;13.792;2023-05-15T14:48:56;99349.72;;;20.07;50.17
75604;BME280;64187;51.010;13.792;2023-05-15T14:53:55;99348.75;;;19.73;49.73
75604;BME280;64187;51.010;13.792;2023-05-15T14:58:54;99354.84;;;19.61;53.45
75604;BME280;64187;51.010;13.792;2023-05-15T15:03:53;99356.34;;;19.41;52.79
75604;BME280;64187;51.010;13.792;2023-05-15T15:08:52;99356.00;;;19.51;53.27
75604;BME280;64187;51.010;13.792;2023-05-15T15:13:51;99352.28;;;20.12;50.80
75604;BME280;64187;51.010;13.792;2023-05-15T15:18:50;99348.06;;;20.53;50.03
75604;BME280;64187;51.010;13.792;2023-05-15T15:23:49;99351.41;;;20.67;50.20
75604;BME280;64187;51.010;13.792;2023-05-15T15:28:48;99355.91;;;20.93;49.04
75604;BME280;64187;51.010;13.792;2023-05-15T15:33:47;99346.78;;;20.80;47.44
75604;BME280;64187;51.010;13.792;2023-05-15T15:38:46;99349.25;;;20.73;48.44
75604;BME280;64187;51.010;13.792;2023-05-15T15:43:45;99350.91;;;20.35;49.76
75604;BME280;64187;51.010;13.792;2023-05-15T15:48:44;99351.56;;;19.94;50.70
75604;BME280;64187;51.010;13.792;2023-05-15T15:53:43;99345.50;;;19.53;54.83
75604;BME280;64187;51.010;13.792;2023-05-15T15:58:42;99348.59;;;19.34;51.30
75604;BME280;64187;51.010;13.792;2023-05-15T16:03:41;99339.34;;;18.52;53.02
75604;BME280;64187;51.010;13.792;2023-05-15T16:08:40;99399.69;;;17.67;60.48
75604;BME280;64187;51.010;13.792;2023-05-15T16:13:39;99425.38;;;17.35;64.13
75604;BME280;64187;51.010;13.792;2023-05-15T16:18:38;99433.47;;;17.26;66.02
75604;BME280;64187;51.010;13.792;2023-05-15T16:23:38;99423.84;;;16.92;65.90
75604;BME280;64187;51.010;13.792;2023-05-15T16:28:40;99420.19;;;16.69;68.90
75604;BME280;64187;51.010;13.792;2023-05-15T16:33:39;99406.81;;;15.99;75.48
75604;BME280;64187;51.010;13.792;2023-05-15T16:38:38;99411.47;;;16.12;74.78
75604;BME280;64187;51.010;13.792;2023-05-15T16:43:37;99392.13;;;15.81;77.69
75604;BME280;64187;51.010;13.792;2023-05-15T16:48:36;99411.75;;;15.64;79.72
75604;BME280;64187;51.010;13.792;2023-05-15T16:53:35;99434.91;;;15.66;77.87
75604;BME280;64187;51.010;13.792;2023-05-15T16:58:34;99444.00;;;16.27;73.00
75604;BME280;64187;51.010;13.792;2023-05-15T17:03:33;99456.31;;;15.92;75.40
75604;BME280;64187;51.010;13.792;2023-05-15T17:08:32;99466.25;;;15.88;74.35
75604;BME280;64187;51.010;13.792;2023-05-15T17:13:32;99465.56;;;15.96;72.17
75604;BME280;64187;51.010;13.792;2023-05-15T17:18:31;99451.63;;;16.11;74.52
75604;BME280;64187;51.010;13.792;2023-05-15T17:23:30;99449.00;;;15.74;77.47
75604;BME280;64187;51.010;13.792;2023-05-15T17:28:29;99447.41;;;15.73;77.40
75604;BME280;64187;51.010;13.792;2023-05-15T17:33:27;99441.63;;;15.55;80.11
75604;BME280;64187;51.010;13.792;2023-05-15T17:38:26;99451.06;;;15.63;79.67
75604;BME280;64187;51.010;13.792;2023-05-15T17:43:25;99454.91;;;15.81;80.01
75604;BME280;64187;51.010;13.792;2023-05-15T17:48:24;99461.25;;;15.76;78.70
75604;BME280;64187;51.010;13.792;2023-05-15T17:53:23;99465.63;;;15.91;78.54
75604;BME280;64187;51.010;13.792;2023-05-15T17:58:22;99480.59;;;15.93;76.81
75604;BME280;64187;51.010;13.792;2023-05-15T18:03:21;99500.00;;;15.92;77.90
75604;BME280;64187;51.010;13.792;2023-05-15T18:08:20;99503.56;;;15.74;77.94
75604;BME280;64187;51.010;13.792;2023-05-15T18:13:19;99513.44;;;15.50;81.15
75604;BME280;64187;51.010;13.792;2023-05-15T18:18:18;99519.09;;;15.54;80.84
75604;BME280;64187;51.010;13.792;2023-05-15T18:23:17;99520.59;;;15.65;79.73
75604;BME280;64187;51.010;13.792;2023-05-15T18:28:17;99531.13;;;15.53;80.12
75604;BME280;64187;51.010;13.792;2023-05-15T18:33:16;99531.91;;;15.78;73.43
75604;BME280;64187;51.010;13.792;2023-05-15T18:38:15;99525.09;;;15.56;77.55
75604;BME280;64187;51.010;13.792;2023-05-15T18:43:14;99509.28;;;15.34;79.72
75604;BME280;64187;51.010;13.792;2023-05-15T18:48:13;99505.31;;;15.26;79.75
75604;BME280;64187;51.010;13.792;2023-05-15T18:53:12;99509.38;;;15.29;78.05
75604;BME280;64187;51.010;13.792;2023-05-15T18:58:10;99516.72;;;15.10;79.07
75604;BME280;64187;51.010;13.792;2023-05-15T19:03:09;99524.97;;;14.56;80.06
75604;BME280;64187;51.010;13.792;2023-05-15T19:08:08;99532.47;;;14.35;79.88
75604;BME280;64187;51.010;13.792;2023-05-15T19:13:07;99546.28;;;14.44;80.22
75604;BME280;64187;51.010;13.792;2023-05-15T19:18:06;99546.22;;;14.54;79.39
75604;BME280;64187;51.010;13.792;2023-05-15T19:23:05;99558.03;;;14.39;81.18
75604;BME280;64187;51.010;13.792;2023-05-15T19:28:06;99575.47;;;14.38;81.08
75604;BME280;64187;51.010;13.792;2023-05-15T19:33:06;99568.41;;;14.37;81.66
75604;BME280;64187;51.010;13.792;2023-05-15T19:38:05;99567.72;;;14.56;79.02
75604;BME280;64187;51.010;13.792;2023-05-15T19:43:04;99581.16;;;14.42;80.60
75604;BME280;64187;51.010;13.792;2023-05-15T19:48:03;99572.56;;;14.30;81.62
75604;BME280;64187;51.010;13.792;2023-05-15T19:53:02;99585.00;;;14.07;82.49
75604;BME280;64187;51.010;13.792;2023-05-15T19:58:01;99585.59;;;13.93;83.68
75604;BME280;64187;51.010;13.792;2023-05-15T20:03:00;99581.28;;;13.92;82.51
75604;BME280;64187;51.010;13.792;2023-05-15T20:07:58;99595.28;;;13.70;84.13
75604;BME280;64187;51.010;13.792;2023-05-15T20:12:58;99594.41;;;13.20;86.26
75604;BME280;64187;51.010;13.792;2023-05-15T20:17:57;99600.03;;;14.92;76.05
75604;BME280;64187;51.010;13.792;2023-05-15T20:22:55;99600.22;;;14.76;78.90
75604;BME280;64187;51.010;13.792;2023-05-15T20:27:55;99607.63;;;14.36;80.73
75604;BME280;64187;51.010;13.792;2023-05-15T20:32:56;99606.53;;;13.98;82.67
75604;BME280;64187;51.010;13.792;2023-05-15T20:37:55;99613.16;;;13.87;83.73
75604;BME280;64187;51.010;13.792;2023-05-15T20:42:55;99594.47;;;13.70;84.55
75604;BME280;64187;51.010;13.792;2023-05-15T20:47:54;99595.63;;;13.53;84.94
75604;BME280;64187;51.010;13.792;2023-05-15T20:52:53;99594.16;;;13.76;83.78
75604;BME280;64187;51.010;13.792;2023-05-15T20:57:52;99588.97;;;13.15;86.87
75604;BME280;64187;51.010;13.792;2023-05-15T21:02:51;99588.09;;;13.40;85.18
75604;BME280;64187;51.010;13.792;2023-05-15T21:07:50;99579.31;;;13.53;84.32
75604;BME280;64187;51.010;13.792;2023-05-15T21:12:49;99578.16;;;13.70;76.86
75604;BME280;64187;51.010;13.792;2023-05-15T21:17:48;99589.31;;;14.42;68.69
75604;BME280;64187;51.010;13.792;2023-05-15T21:22:47;99589.50;;;14.51;69.87
75604;BME280;64187;51.010;13.792;2023-05-15T21:27:46;99585.59;;;14.67;68.57
75604;BME280;64187;51.010;13.792;2023-05-15T21:32:44;99585.94;;;14.84;65.72
75604;BME280;64187;51.010;13.792;2023-05-15T21:37:43;99594.31;;;14.93;67.40
75604;BME280;64187;51.010;13.792;2023-05-15T21:42:42;99599.00;;;14.88;65.72
75604;BME280;64187;51.010;13.792;2023-05-15T21:47:41;99606.09;;;14.89;65.72
75604;BME280;64187;51.010;13.792;2023-05-15T21:52:40;99612.81;;;14.67;67.90
75604;BME280;64187;51.010;13.792;2023-05-15T21:57:39;99607.75;;;14.84;64.89
75604;BME280;64187;51.010;13.792;2023-05-15T22:02:38;99618.16;;;14.77;66.95
75604;BME280;64187;51.010;13.792;2023-05-15T22:07:37;99621.44;;;14.79;65.45
75604;BME280;64187;51.010;13.792;2023-05-15T22:12:36;99613.72;;;14.86;64.72
75604;BME280;64187;51.010;13.792;2023-05-15T22:17:35;99614.44;;;14.68;65.23
75604;BME280;64187;51.010;13.792;2023-05-15T22:22:34;99622.34;;;14.70;65.21
75604;BME280;64187;51.010;13.792;2023-05-15T22:27:33;99622.97;;;14.85;63.26
75604;BME280;64187;51.010;13.792;2023-05-15T22:32:32;99629.31;;;14.81;63.73
75604;BME280;64187;51.010;13.792;2023-05-15T22:37:32;99636.97;;;14.79;63.98
75604;BME280;64187;51.010;13.792;2023-05-15T22:42:30;99641.19;;;14.66;64.89
75604;BME280;64187;51.010;13.792;2023-05-15T22:47:30;99658.59;;;14.65;64.94
75604;BME280;64187;51.010;13.792;2023-05-15T22:52:29;99660.09;;;14.47;65.30
75604;BME280;64187;51.010;13.792;2023-05-15T22:57:27;99661.19;;;14.46;65.53
75604;BME280;64187;51.010;13.792;2023-05-15T23:02:26;99659.34;;;14.36;65.46
75604;BME280;64187;51.010;13.792;2023-05-15T23:07:25;99661.53;;;14.34;67.62
75604;BME280;64187;51.010;13.792;2023-05-15T23:12:24;99658.59;;;14.26;68.15
75604;BME280;64187;51.010;13.792;2023-05-15T23:17:23;99655.97;;;14.10;68.47
75604;BME280;64187;51.010;13.792;2023-05-15T23:22:24;99664.41;;;14.14;66.39
75604;BME280;64187;51.010;13.792;2023-05-15T23:27:23;99668.75;;;14.15;66.48
75604;BME280;64187;51.010;13.792;2023-05-15T23:32:21;99667.16;;;14.09;66.56
75604;BME280;64187;51.010;13.792;2023-05-15T23:37:20;99676.72;;;14.01;66.40
75604;BME280;64187;51.010;13.792;2023-05-15T23:42:20;99689.81;;;13.99;66.87
75604;BME280;64187;51.010;13.792;2023-05-15T23:47:20;99680.88;;;13.83;68.56
75604;BME280;64187;51.010;13.792;2023-05-15T23:52:19;99674.84;;;13.96;66.55
75604;BME280;64187;51.010;13.792;2023-05-15T23:57:18;99683.59;;;13.88;67.07
